One Horse Store, Arkansas
Current Conditions -  °F | °C
As of 5:15 PM on Friday 31 Oct 2014 (Local Time) from KSGT Reporting Station
Clear Clear  
Wind Chill: 57°   Ceiling: Unl
Heat Index: 57°   Visibility: 10mi
Dew Point: 34°   Wind: 17mph
Humidity: 41%   Direction: 360°N
Pressure: 30.22"   Gusts: NA
Location:  34.3615°N, 91.5213°W
Report Text: KSGT 312215Z AUTO 36015KT 10SM CLR 14/01 A3022 RMK AO1
Loading
Personal Weather Stations






























Interactive Weather Map
Tropical Storm Tracking
New forecast layout! Learn more

10-Day Weather Forecast

Advertisements
Track Severe Weather on mobile